Time;durP1;ratioP1;P1;durP2;ratioP2;P2;SDS_P1;SDS_P2;PMS_P1;PMS_P2;Temp;Humidity;BMP_temperature;BMP_pressure;BME280_temperature;BME280_humidity;BME280_pressure;Samples;Min_cycle;Max_cycle;Signal;HPM_P1;HPM_P2
2022/07/15 00:01:05;;;;;;;0.60;0.60;;;19.90;84.10;;;;;;5038506;28;20197;-72
2022/07/15 00:03:32;;;;;;;0.77;0.77;;;19.90;84.10;;;;;;5052027;28;20206;-71
2022/07/15 00:05:59;;;;;;;0.75;0.75;;;19.90;84.00;;;;;;5038057;28;20190;-71
2022/07/15 00:08:28;;;;;;;0.57;0.57;;;19.90;84.00;;;;;;5038717;28;20213;-72
2022/07/15 00:10:56;;;;;;;0.80;0.80;;;20.00;84.20;;;;;;5038825;28;20198;-71
2022/07/15 00:13:24;;;;;;;0.70;0.70;;;19.90;84.20;;;;;;5043151;28;20240;-73
2022/07/15 00:15:52;;;;;;;0.70;0.70;;;20.00;85.20;;;;;;5038145;28;20807;-72
2022/07/15 00:18:19;;;;;;;1.08;0.40;;;20.00;84.40;;;;;;5037787;28;20331;-72
2022/07/15 00:20:46;;;;;;;0.70;0.60;;;19.90;84.40;;;;;;5036520;28;20209;-72
2022/07/15 00:23:13;;;;;;;0.80;0.80;;;19.90;84.60;;;;;;5037273;28;20224;-72
2022/07/15 00:25:41;;;;;;;0.52;0.52;;;19.90;84.90;;;;;;5037308;28;20241;-72
2022/07/15 00:28:09;;;;;;;0.60;0.60;;;19.90;84.90;;;;;;5044147;28;20214;-73
2022/07/15 00:30:38;;;;;;;1.40;0.75;;;19.90;85.00;;;;;;5052065;28;20222;-73
2022/07/15 00:33:06;;;;;;;0.70;0.70;;;19.80;85.00;;;;;;5036533;28;20193;-72
2022/07/15 00:35:34;;;;;;;0.80;0.80;;;19.80;85.10;;;;;;5051536;28;21023;-71
2022/07/15 00:38:03;;;;;;;1.08;0.90;;;19.80;85.30;;;;;;5052298;28;20197;-72
2022/07/15 00:40:30;;;;;;;0.50;0.50;;;19.80;85.50;;;;;;5037250;28;20225;-71
2022/07/15 00:42:58;;;;;;;1.30;0.70;;;19.70;85.50;;;;;;5036529;28;20255;-71
2022/07/15 00:45:26;;;;;;;0.93;0.70;;;19.70;85.50;;;;;;5037117;28;20240;-72
2022/07/15 00:47:55;;;;;;;0.70;0.60;;;19.70;85.70;;;;;;5036112;28;20846;-73
2022/07/15 00:50:26;;;;;;;8.52;0.75;;;19.70;85.90;;;;;;5050115;28;20325;-72
2022/07/15 00:52:56;;;;;;;1.00;0.63;;;19.60;86.60;;;;;;5036270;28;20198;-74
2022/07/15 00:55:24;;;;;;;0.70;0.70;;;19.60;86.00;;;;;;5036361;28;20273;-73
2022/07/15 00:57:56;;;;;;;0.55;0.55;;;19.60;86.10;;;;;;5043464;28;20599;-72
2022/07/15 01:00:25;;;;;;;0.50;0.50;;;19.50;86.20;;;;;;5035217;28;20368;-73
2022/07/15 01:02:54;;;;;;;0.77;0.77;;;19.50;86.30;;;;;;5036215;28;20195;-72
2022/07/15 01:05:22;;;;;;;0.90;0.90;;;19.40;86.60;;;;;;5035481;28;20229;-72
2022/07/15 01:07:50;;;;;;;0.73;0.52;;;19.40;86.80;;;;;;5043659;28;20335;-72
2022/07/15 01:10:18;;;;;;;0.60;0.60;;;19.30;87.60;;;;;;5036352;28;20213;-73
2022/07/15 01:12:47;;;;;;;0.90;0.90;;;19.30;87.00;;;;;;5027393;28;20662;-72
2022/07/15 01:15:16;;;;;;;0.40;0.40;;;19.30;87.20;;;;;;5050747;28;20198;-72
2022/07/15 01:17:45;;;;;;;0.73;0.60;;;19.30;88.00;;;;;;5052069;28;20206;-72
2022/07/15 01:20:14;;;;;;;1.15;0.80;;;19.30;87.40;;;;;;5050869;28;20198;-72
2022/07/15 01:22:53;;;;;;;0.52;0.52;;;19.30;87.70;;;;;;5036232;28;20591;-71
2022/07/15 01:25:22;;;;;;;0.73;0.60;;;19.20;87.70;;;;;;5036311;28;20313;-73
2022/07/15 01:27:50;;;;;;;0.60;0.57;;;19.20;87.80;;;;;;5034868;28;20752;-73
2022/07/15 01:30:23;;;;;;;0.77;0.77;;;19.20;88.30;;;;;;5035754;28;20197;-72
2022/07/15 01:32:52;;;;;;;0.70;0.70;;;19.10;88.40;;;;;;5050464;28;20206;-71
2022/07/15 01:35:19;;;;;;;0.57;0.57;;;19.10;88.50;;;;;;5036307;28;20527;-72
2022/07/15 01:37:48;;;;;;;0.70;0.70;;;19.10;88.60;;;;;;5051117;28;20189;-71
2022/07/15 01:40:18;;;;;;;1.23;0.70;;;19.10;88.60;;;;;;5051323;28;20199;-72
2022/07/15 01:42:46;;;;;;;1.50;0.80;;;19.10;88.80;;;;;;5042680;28;20205;-73
2022/07/15 01:45:16;;;;;;;1.48;0.80;;;19.10;88.80;;;;;;5036519;28;20747;-73
2022/07/15 01:47:48;;;;;;;0.98;0.80;;;19.60;89.40;;;;;;5038451;28;20237;-73
2022/07/15 01:50:24;;;;;;;2.38;0.90;;;19.00;89.10;;;;;;5033751;28;20218;-73
2022/07/15 01:52:57;;;;;;;1.95;0.80;;;18.90;89.10;;;;;;5034932;28;20227;-74
2022/07/15 01:55:28;;;;;;;1.23;0.75;;;18.90;89.30;;;;;;5050485;28;20207;-74
2022/07/15 01:57:57;;;;;;;0.93;0.82;;;18.90;89.30;;;;;;5049590;28;20217;-74
2022/07/15 02:00:24;;;;;;;0.63;0.63;;;18.80;89.10;;;;;;5050099;28;20197;-73
2022/07/15 02:02:52;;;;;;;1.05;0.63;;;18.80;88.90;;;;;;5034444;28;20197;-73
2022/07/15 02:05:21;;;;;;;0.70;0.70;;;18.80;88.80;;;;;;5049361;28;20206;-73
2022/07/15 02:07:50;;;;;;;0.98;0.57;;;18.80;88.70;;;;;;5033792;28;20213;-72
2022/07/15 02:10:20;;;;;;;0.98;0.60;;;18.90;88.70;;;;;;5033968;28;20254;-73
2022/07/15 02:12:50;;;;;;;0.75;0.70;;;18.90;88.50;;;;;;5033733;28;20198;-74
2022/07/15 02:15:21;;;;;;;0.65;0.50;;;18.90;88.40;;;;;;5027009;28;20202;-73
2022/07/15 02:17:50;;;;;;;0.50;0.50;;;18.90;88.30;;;;;;5027965;28;20289;-72
2022/07/15 02:20:17;;;;;;;0.90;0.50;;;18.90;88.40;;;;;;5035132;28;20259;-73
2022/07/15 02:22:46;;;;;;;0.60;0.60;;;18.90;88.50;;;;;;5026817;28;20681;-73
2022/07/15 02:25:13;;;;;;;0.60;0.60;;;18.90;88.70;;;;;;5049484;28;20417;-73
2022/07/15 02:27:40;;;;;;;0.50;0.50;;;18.80;88.60;;;;;;5034345;28;20193;-74
2022/07/15 02:30:11;;;;;;;1.52;0.73;;;18.80;88.90;;;;;;5049806;28;22041;-74
2022/07/15 02:32:39;;;;;;;0.60;0.60;;;18.80;89.00;;;;;;5034281;28;20205;-74
2022/07/15 02:35:08;;;;;;;1.08;0.63;;;18.80;89.20;;;;;;5034046;28;20307;-74
2022/07/15 02:37:35;;;;;;;1.45;0.55;;;18.80;89.50;;;;;;5026813;28;20235;-74
2022/07/15 02:40:02;;;;;;;0.40;0.40;;;18.70;89.70;;;;;;5027099;28;20905;-73
2022/07/15 02:42:32;;;;;;;0.73;0.70;;;18.70;89.90;;;;;;5033975;28;20210;-73
2022/07/15 02:45:01;;;;;;;0.77;0.70;;;18.70;90.10;;;;;;5034560;28;20205;-73
2022/07/15 02:47:29;;;;;;;0.95;0.65;;;18.70;90.20;;;;;;5035677;28;20197;-73
2022/07/15 02:49:58;;;;;;;0.40;0.40;;;18.70;90.20;;;;;;5044406;28;20225;-74
2022/07/15 02:52:26;;;;;;;0.40;0.40;;;18.70;90.30;;;;;;5033112;28;20225;-73
2022/07/15 02:54:53;;;;;;;0.65;0.60;;;18.80;90.30;;;;;;5049638;28;20205;-75
2022/07/15 02:57:21;;;;;;;0.50;0.50;;;18.80;90.40;;;;;;5032422;28;20721;-75
2022/07/15 02:59:49;;;;;;;1.77;0.60;;;18.80;90.80;;;;;;5033492;28;20198;-75
2022/07/15 03:02:16;;;;;;;0.50;0.50;;;18.80;90.80;;;;;;5033620;28;20519;-74
2022/07/15 03:04:45;;;;;;;1.45;0.60;;;18.70;90.50;;;;;;5034567;28;20206;-73
2022/07/15 03:07:14;;;;;;;0.73;0.50;;;18.70;90.60;;;;;;5034831;28;20286;-73
2022/07/15 03:09:41;;;;;;;0.98;0.60;;;18.70;90.70;;;;;;5032919;28;20221;-74
2022/07/15 03:12:08;;;;;;;0.60;0.60;;;18.70;90.80;;;;;;5033786;28;20202;-74
2022/07/15 03:14:36;;;;;;;0.60;0.50;;;18.70;90.80;;;;;;5034534;28;20561;-74
2022/07/15 03:17:03;;;;;;;0.50;0.50;;;18.70;90.90;;;;;;5034440;28;20267;-75
2022/07/15 03:19:30;;;;;;;1.35;0.50;;;18.60;90.90;;;;;;5033537;28;20232;-71
2022/07/15 03:21:59;;;;;;;0.40;0.40;;;18.70;90.90;;;;;;5034512;28;20282;-71
2022/07/15 03:24:26;;;;;;;1.27;0.60;;;18.70;91.30;;;;;;5033501;28;20202;-71
2022/07/15 03:26:57;;;;;;;0.55;0.55;;;18.60;91.00;;;;;;5049351;28;20727;-71
2022/07/15 03:29:24;;;;;;;1.88;0.70;;;18.70;91.10;;;;;;5032993;28;20711;-72
2022/07/15 03:31:52;;;;;;;0.75;0.75;;;18.70;91.20;;;;;;5034448;28;20198;-72
2022/07/15 03:34:25;;;;;;;1.48;0.68;;;18.60;91.20;;;;;;5033424;28;20228;-71
2022/07/15 03:36:52;;;;;;;0.50;0.50;;;18.60;91.20;;;;;;5034724;28;20199;-72
2022/07/15 03:39:23;;;;;;;0.63;0.60;;;18.60;91.20;;;;;;5028270;28;20271;-72
2022/07/15 03:41:51;;;;;;;0.65;0.65;;;18.60;91.30;;;;;;5040661;28;20195;-72
2022/07/15 03:44:18;;;;;;;0.60;0.60;;;18.60;91.30;;;;;;5042433;28;20228;-72
2022/07/15 03:46:46;;;;;;;1.17;0.80;;;18.50;91.30;;;;;;5049754;28;20907;-72
2022/07/15 03:49:15;;;;;;;1.13;0.70;;;18.50;91.30;;;;;;5033237;28;20213;-72
2022/07/15 03:51:43;;;;;;;1.45;0.70;;;18.50;91.30;;;;;;5032983;28;20198;-72
2022/07/15 03:54:12;;;;;;;0.60;0.60;;;18.50;91.40;;;;;;5048774;28;20206;-73
2022/07/15 03:56:40;;;;;;;1.35;0.55;;;18.50;91.40;;;;;;5034381;28;20281;-72
2022/07/15 03:59:07;;;;;;;0.50;0.50;;;18.50;91.40;;;;;;5032937;28;20655;-72
2022/07/15 04:01:35;;;;;;;1.40;0.60;;;18.50;91.40;;;;;;5034505;28;20280;-72
2022/07/15 04:04:02;;;;;;;0.52;0.50;;;18.50;91.40;;;;;;5032349;28;20217;-71
2022/07/15 04:06:30;;;;;;;0.52;0.52;;;18.50;91.30;;;;;;5033765;28;20210;-73
2022/07/15 04:08:57;;;;;;;1.50;0.50;;;18.50;91.30;;;;;;5034119;28;20213;-73
2022/07/15 04:11:25;;;;;;;2.17;0.70;;;18.50;91.70;;;;;;5031702;28;20205;-73
2022/07/15 04:13:54;;;;;;;1.08;0.65;;;18.50;91.40;;;;;;5025405;28;20255;-72
2022/07/15 04:16:21;;;;;;;0.65;0.50;;;18.50;91.40;;;;;;5034250;28;20222;-72
2022/07/15 04:18:51;;;;;;;0.88;0.65;;;18.50;91.40;;;;;;5040839;28;20576;-72
2022/07/15 04:21:18;;;;;;;0.93;0.55;;;18.50;91.30;;;;;;5031560;28;20794;-72
2022/07/15 04:23:45;;;;;;;0.60;0.60;;;18.50;91.20;;;;;;5032703;28;20202;-72
2022/07/15 04:26:13;;;;;;;0.63;0.60;;;18.60;91.20;;;;;;5047369;28;20222;-73
2022/07/15 04:28:40;;;;;;;0.85;0.60;;;18.60;91.20;;;;;;5032347;28;20213;-73
2022/07/15 04:31:08;;;;;;;0.60;0.60;;;18.60;91.10;;;;;;5033973;28;20226;-73
2022/07/15 04:33:46;;;;;;;0.65;0.65;;;18.60;91.00;;;;;;5050595;28;20240;-72
2022/07/15 04:36:13;;;;;;;0.80;0.70;;;18.60;91.00;;;;;;5027117;28;20316;-72
2022/07/15 04:38:42;;;;;;;0.63;0.63;;;18.60;91.00;;;;;;5035553;28;20292;-72
2022/07/15 04:41:09;;;;;;;1.63;0.70;;;18.60;91.00;;;;;;5037184;28;20218;-73
2022/07/15 04:43:36;;;;;;;0.85;0.70;;;18.60;91.00;;;;;;5036974;28;20198;-71
2022/07/15 04:46:03;;;;;;;1.65;0.60;;;18.60;91.00;;;;;;5038057;28;20281;-73
2022/07/15 04:51:33;;;;;;;0.80;0.75;;;18.60;91.10;;;;;;4972720;28;20659;-70
2022/07/15 04:54:01;;;;;;;1.20;0.80;;;18.60;91.10;;;;;;4983632;28;21057;-71
2022/07/15 04:56:28;;;;;;;0.50;0.50;;;18.60;91.00;;;;;;5001765;28;20197;-71
2022/07/15 04:59:04;;;;;;;1.00;0.75;;;18.60;91.00;;;;;;5026578;28;20225;-70
2022/07/15 05:01:32;;;;;;;0.63;0.63;;;18.70;91.20;;;;;;5034716;28;20490;-69
2022/07/15 05:04:01;;;;;;;0.50;0.50;;;18.70;91.10;;;;;;5034422;28;21233;-70
2022/07/15 05:06:28;;;;;;;0.45;0.45;;;18.70;91.10;;;;;;5036230;28;20212;-70
2022/07/15 05:08:55;;;;;;;0.50;0.50;;;18.70;91.10;;;;;;5045850;28;20198;-69
2022/07/15 05:11:23;;;;;;;9.98;0.70;;;18.70;91.10;;;;;;5036277;28;22514;-70
2022/07/15 05:13:50;;;;;;;1.08;0.80;;;18.70;91.10;;;;;;5050612;28;20202;-70
2022/07/15 05:16:18;;;;;;;1.00;0.60;;;18.70;91.00;;;;;;5028012;28;20214;-70
2022/07/15 05:18:45;;;;;;;0.70;0.70;;;18.70;90.90;;;;;;5035423;28;20251;-70
2022/07/15 05:21:17;;;;;;;2.30;0.70;;;18.70;90.90;;;;;;5035836;28;20389;-69
2022/07/15 05:23:46;;;;;;;4.05;0.77;;;18.70;90.90;;;;;;5034859;28;20206;-69
2022/07/15 05:26:13;;;;;;;0.60;0.60;;;18.70;90.90;;;;;;5035924;28;20738;-72
2022/07/15 05:28:44;;;;;;;1.10;0.50;;;18.70;90.80;;;;;;5051073;28;20229;-72
2022/07/15 05:31:11;;;;;;;0.85;0.70;;;18.80;90.90;;;;;;5042482;28;20221;-72
2022/07/15 05:33:39;;;;;;;2.15;0.60;;;18.80;90.80;;;;;;5050276;28;20268;-72
2022/07/15 05:36:12;;;;;;;1.02;0.60;;;18.80;90.70;;;;;;5036474;28;20556;-72
2022/07/15 05:38:43;;;;;;;0.60;0.60;;;18.90;90.60;;;;;;5036840;28;20281;-71
2022/07/15 05:41:10;;;;;;;1.83;0.77;;;18.90;90.60;;;;;;5036176;28;20197;-71
2022/07/15 05:43:38;;;;;;;2.15;0.75;;;18.90;90.50;;;;;;5034951;28;20211;-72
2022/07/15 05:46:06;;;;;;;1.30;0.90;;;18.90;90.40;;;;;;5051584;28;20201;-70
2022/07/15 05:48:42;;;;;;;2.05;0.73;;;18.80;90.20;;;;;;5035678;28;20289;-72
2022/07/15 05:51:09;;;;;;;0.93;0.60;;;18.90;89.80;;;;;;5035781;28;20296;-73
2022/07/15 05:53:38;;;;;;;0.70;0.70;;;18.90;89.60;;;;;;5050243;28;20194;-73
2022/07/15 05:56:09;;;;;;;0.60;0.60;;;18.90;89.20;;;;;;5044640;28;20204;-72
2022/07/15 05:58:36;;;;;;;0.73;0.60;;;18.90;89.20;;;;;;5049070;28;20289;-72
2022/07/15 06:01:05;;;;;;;2.63;0.82;;;18.90;89.10;;;;;;5035551;28;20560;-71
2022/07/15 06:03:39;;;;;;;1.90;0.90;;;18.90;88.80;;;;;;5049434;28;20202;-71
2022/07/15 06:06:07;;;;;;;1.70;0.88;;;18.90;88.00;;;;;;5034213;28;20521;-70
2022/07/15 06:08:36;;;;;;;1.30;0.93;;;18.90;87.60;;;;;;5034388;28;20430;-71
2022/07/15 06:11:03;;;;;;;2.25;0.80;;;18.80;87.40;;;;;;5033401;28;20715;-71
2022/07/15 06:13:32;;;;;;;1.73;0.80;;;18.80;87.30;;;;;;5033682;28;20208;-71
2022/07/15 06:15:59;;;;;;;1.45;0.70;;;18.90;87.40;;;;;;5049656;28;20248;-71
2022/07/15 06:18:26;;;;;;;3.33;0.90;;;18.90;87.10;;;;;;5043294;28;20251;-70
2022/07/15 06:20:54;;;;;;;1.02;0.95;;;19.00;86.80;;;;;;5049059;28;20194;-72
2022/07/15 06:23:22;;;;;;;2.15;0.90;;;19.00;86.50;;;;;;5033953;28;20202;-70
2022/07/15 06:25:50;;;;;;;2.10;0.80;;;19.00;86.10;;;;;;5032777;28;20396;-71
2022/07/15 06:28:17;;;;;;;0.70;0.70;;;19.10;86.30;;;;;;5032889;28;20206;-70
2022/07/15 06:30:46;;;;;;;1.02;0.90;;;19.10;86.60;;;;;;5035208;28;20217;-71
2022/07/15 06:33:13;;;;;;;0.80;0.80;;;19.10;87.10;;;;;;5034107;28;20201;-70
2022/07/15 06:35:40;;;;;;;0.60;0.60;;;19.10;87.20;;;;;;5034065;28;20257;-71
2022/07/15 06:38:08;;;;;;;1.30;0.80;;;19.10;87.20;;;;;;5050369;28;20214;-72
2022/07/15 06:40:36;;;;;;;1.67;0.70;;;19.10;87.20;;;;;;5034261;28;20208;-71
2022/07/15 06:43:03;;;;;;;0.95;0.93;;;19.10;87.20;;;;;;5031197;28;20313;-70
2022/07/15 06:45:52;;;;;;;1.65;0.80;;;19.10;86.90;;;;;;5035809;28;20206;-70
2022/07/15 06:48:19;;;;;;;1.88;0.77;;;19.10;86.70;;;;;;5048657;28;20202;-71
2022/07/15 06:50:47;;;;;;;1.00;0.82;;;19.20;86.60;;;;;;5034728;28;20210;-70
2022/07/15 06:53:15;;;;;;;3.75;0.70;;;19.10;86.50;;;;;;5032767;28;20255;-71
2022/07/15 06:55:42;;;;;;;0.98;0.70;;;19.20;87.20;;;;;;5034200;28;20650;-71
2022/07/15 06:58:09;;;;;;;2.72;0.93;;;19.10;87.70;;;;;;5032974;28;20279;-70
2022/07/15 07:00:37;;;;;;;1.05;0.80;;;19.10;88.10;;;;;;5048886;28;20202;-71
2022/07/15 07:03:05;;;;;;;0.93;0.70;;;19.00;88.50;;;;;;5032227;28;20197;-70
2022/07/15 07:05:33;;;;;;;1.02;0.70;;;19.00;88.90;;;;;;5033556;28;20190;-70
2022/07/15 07:08:00;;;;;;;1.50;0.85;;;19.00;88.90;;;;;;5049881;28;20210;-71
2022/07/15 07:10:27;;;;;;;1.00;0.90;;;19.00;89.10;;;;;;5049345;28;20909;-71
2022/07/15 07:12:56;;;;;;;0.70;0.70;;;19.10;89.20;;;;;;5033326;28;20605;-71
2022/07/15 07:15:23;;;;;;;1.67;0.70;;;19.10;89.00;;;;;;5034776;28;20194;-70
2022/07/15 07:17:52;;;;;;;1.08;0.75;;;19.10;89.00;;;;;;5034285;28;20277;-71
2022/07/15 07:20:20;;;;;;;1.48;0.80;;;19.10;88.80;;;;;;5033579;28;20202;-71
2022/07/15 07:22:48;;;;;;;3.60;0.90;;;19.10;88.70;;;;;;5034191;28;20232;-70
2022/07/15 07:25:15;;;;;;;3.60;0.70;;;19.20;89.00;;;;;;5033205;28;20577;-71
2022/07/15 07:27:42;;;;;;;4.95;1.00;;;19.20;87.70;;;;;;5032866;28;20201;-71
2022/07/15 07:30:10;;;;;;;0.95;0.80;;;19.30;87.00;;;;;;5033764;28;20190;-71
2022/07/15 07:32:37;;;;;;;1.05;0.85;;;19.40;86.60;;;;;;5034118;28;20230;-71
2022/07/15 07:35:05;;;;;;;1.60;0.80;;;19.40;86.20;;;;;;5033981;28;20654;-71
2022/07/15 07:37:37;;;;;;;0.70;0.70;;;19.50;85.70;;;;;;5034144;28;20222;-71
2022/07/15 07:40:05;;;;;;;1.95;0.90;;;19.50;85.40;;;;;;5034233;28;20338;-71
2022/07/15 07:42:32;;;;;;;0.70;0.70;;;19.60;85.00;;;;;;5033853;28;20194;-71
2022/07/15 07:45:01;;;;;;;2.20;1.20;;;19.70;84.20;;;;;;5032582;28;20252;-70
2022/07/15 07:47:28;;;;;;;1.02;0.70;;;19.70;83.30;;;;;;5040205;28;20696;-70
2022/07/15 07:49:55;;;;;;;1.10;0.90;;;19.60;82.40;;;;;;5033912;28;20633;-71
2022/07/15 07:52:22;;;;;;;2.72;0.75;;;19.60;82.20;;;;;;5033646;28;20268;-71
2022/07/15 07:54:51;;;;;;;1.40;0.85;;;19.60;82.10;;;;;;5032659;28;20345;-71
2022/07/15 07:57:18;;;;;;;1.23;0.75;;;19.60;81.90;;;;;;5032882;28;20740;-71
2022/07/15 07:59:45;;;;;;;3.30;0.68;;;19.50;82.10;;;;;;5032619;28;20208;-70
2022/07/15 08:02:12;;;;;;;0.77;0.70;;;19.50;82.50;;;;;;5033651;28;20788;-70
2022/07/15 08:04:40;;;;;;;1.48;0.70;;;19.50;82.40;;;;;;5033759;28;20681;-71
2022/07/15 08:07:08;;;;;;;0.80;0.80;;;19.50;81.70;;;;;;5025348;28;20241;-70
2022/07/15 08:09:35;;;;;;;2.10;0.80;;;19.50;81.50;;;;;;5036072;28;20196;-70
2022/07/15 08:12:04;;;;;;;1.02;0.80;;;19.50;81.00;;;;;;5037120;28;20311;-71
2022/07/15 08:14:31;;;;;;;0.77;0.70;;;19.50;80.90;;;;;;5050783;28;20649;-71
2022/07/15 08:16:58;;;;;;;1.67;0.55;;;19.50;80.80;;;;;;5051567;28;20293;-71
2022/07/15 08:19:26;;;;;;;0.80;0.80;;;19.60;80.20;;;;;;5036922;28;20744;-71
2022/07/15 08:21:53;;;;;;;1.35;0.77;;;19.60;79.80;;;;;;5051955;28;20198;-72
2022/07/15 08:24:20;;;;;;;0.95;0.80;;;19.60;79.80;;;;;;5052197;28;20198;-71
2022/07/15 08:26:47;;;;;;;1.10;0.80;;;19.60;79.80;;;;;;5037091;28;20718;-71
2022/07/15 08:29:16;;;;;;;2.88;0.73;;;19.60;80.10;;;;;;5035062;28;20209;-71
2022/07/15 08:31:43;;;;;;;1.42;1.00;;;19.70;81.00;;;;;;5036238;28;20210;-70
2022/07/15 08:34:10;;;;;;;0.63;0.55;;;19.70;82.30;;;;;;5037192;28;20190;-71
2022/07/15 08:36:37;;;;;;;1.65;1.00;;;19.70;83.30;;;;;;5036971;28;20201;-71
2022/07/15 08:39:05;;;;;;;1.40;1.00;;;19.60;84.10;;;;;;5036102;28;20252;-71
2022/07/15 08:41:36;;;;;;;2.58;0.90;;;19.60;84.70;;;;;;5036547;28;20208;-72
2022/07/15 08:44:03;;;;;;;2.10;1.00;;;19.50;85.00;;;;;;5043157;28;20202;-71
2022/07/15 08:46:34;;;;;;;1.30;0.90;;;19.50;85.40;;;;;;5036935;28;20273;-70
2022/07/15 08:49:06;;;;;;;0.75;0.75;;;19.50;85.80;;;;;;5036845;28;20495;-70
2022/07/15 08:51:36;;;;;;;1.75;1.10;;;19.50;86.10;;;;;;5035591;28;20212;-71
2022/07/15 08:54:03;;;;;;;3.05;0.90;;;19.40;86.30;;;;;;5038148;28;20210;-71
2022/07/15 08:56:33;;;;;;;1.00;0.80;;;19.40;86.40;;;;;;5035342;28;20276;-70
2022/07/15 08:59:01;;;;;;;1.13;0.80;;;19.40;86.50;;;;;;5035070;28;20190;-70
2022/07/15 09:01:29;;;;;;;2.03;0.80;;;19.40;87.40;;;;;;5035077;28;20291;-71
2022/07/15 09:03:59;;;;;;;2.47;0.90;;;19.50;86.70;;;;;;5036380;28;20670;-70
2022/07/15 09:06:34;;;;;;;0.90;0.90;;;19.50;86.60;;;;;;5035175;28;20202;-71
2022/07/15 09:09:23;;;;;;;1.05;0.80;;;19.50;86.70;;;;;;5035500;28;20695;-71
2022/07/15 09:11:56;;;;;;;2.55;0.90;;;19.50;87.10;;;;;;5035102;28;20304;-70
2022/07/15 09:14:24;;;;;;;0.77;0.70;;;19.50;87.50;;;;;;5035626;28;20281;-71
2022/07/15 09:17:01;;;;;;;0.60;0.60;;;19.50;87.70;;;;;;5036447;28;20783;-70
2022/07/15 09:19:29;;;;;;;3.15;1.00;;;19.50;88.00;;;;;;5035319;28;20201;-70
2022/07/15 09:22:02;;;;;;;0.65;0.65;;;19.50;88.00;;;;;;5035690;28;20332;-70
2022/07/15 09:24:29;;;;;;;1.80;1.20;;;19.60;88.10;;;;;;5035631;28;20190;-70
2022/07/15 09:26:57;;;;;;;1.05;0.95;;;19.70;88.20;;;;;;5035526;28;20246;-70
2022/07/15 09:36:01;;;;;;;2.88;1.20;;;19.80;87.70;;;;;;5036009;28;20677;-70
2022/07/15 09:38:00;;;;;;;1.17;0.80;;;19.80;87.10;;;;;;5036037;28;20198;-70
2022/07/15 09:40:28;;;;;;;1.58;0.80;;;19.90;86.70;;;;;;5036061;28;20384;-70
2022/07/15 09:43:05;;;;;;;2.67;1.13;;;19.90;86.50;;;;;;5035261;28;20800;-70
2022/07/15 09:45:34;;;;;;;3.75;1.00;;;20.00;86.40;;;;;;5050883;28;20198;-71
2022/07/15 09:48:07;;;;;;;2.50;1.10;;;20.00;86.20;;;;;;5036025;28;20930;-69
2022/07/15 09:50:38;;;;;;;3.92;0.80;;;19.90;87.20;;;;;;5035458;28;20198;-70
2022/07/15 09:53:10;;;;;;;0.95;0.80;;;19.90;87.00;;;;;;5034102;28;20229;-70
2022/07/15 09:55:37;;;;;;;2.10;1.15;;;19.80;87.70;;;;;;5036023;28;20198;-69
2022/07/15 09:58:05;;;;;;;0.85;0.55;;;19.80;88.30;;;;;;5034491;28;20302;-70
2022/07/15 10:00:32;;;;;;;0.90;0.90;;;19.70;88.80;;;;;;5035979;28;20279;-70
2022/07/15 10:02:59;;;;;;;1.15;1.00;;;19.70;89.50;;;;;;5034405;28;20224;-70
2022/07/15 10:05:27;;;;;;;1.15;0.77;;;19.70;90.10;;;;;;5034450;28;20417;-70
2022/07/15 10:07:58;;;;;;;2.03;0.90;;;19.70;90.00;;;;;;5035023;28;20194;-71
2022/07/15 10:10:26;;;;;;;2.60;0.90;;;19.80;89.90;;;;;;5042368;28;20733;-71
2022/07/15 10:13:01;;;;;;;2.13;1.08;;;19.70;89.60;;;;;;5034271;28;20205;-72
2022/07/15 10:15:42;;;;;;;2.42;1.10;;;19.70;89.90;;;;;;5034643;28;20381;-71
2022/07/15 10:18:21;;;;;;;0.73;0.70;;;19.70;88.10;;;;;;5034757;28;20192;-71
2022/07/15 10:21:20;;;;;;;1.67;0.80;;;19.60;87.30;;;;;;5035300;28;20186;-72
2022/07/15 10:24:14;;;;;;;0.80;0.80;;;19.50;86.80;;;;;;5031389;28;20213;-72
2022/07/15 10:26:57;;;;;;;3.90;0.90;;;19.40;86.40;;;;;;5050210;28;20324;-72
2022/07/15 10:29:25;;;;;;;1.40;0.80;;;19.40;86.50;;;;;;5032612;28;21111;-71
2022/07/15 10:32:03;;;;;;;3.15;1.27;;;19.50;87.00;;;;;;5033683;28;20217;-71
2022/07/15 10:34:33;;;;;;;1.15;0.77;;;19.60;87.60;;;;;;5027302;28;20669;-71
2022/07/15 10:37:06;;;;;;;3.53;1.05;;;19.80;87.30;;;;;;5049377;28;20271;-71
2022/07/15 10:40:06;;;;;;;0.75;0.75;;;19.90;86.90;;;;;;5050221;28;20669;-72
2022/07/15 10:43:03;;;;;;;2.92;1.20;;;20.00;86.40;;;;;;5033781;28;20324;-71
2022/07/15 10:45:30;;;;;;;1.48;0.80;;;20.20;86.20;;;;;;5000744;28;20202;-71
2022/07/15 10:48:30;;;;;;;2.53;1.13;;;20.30;86.00;;;;;;5034725;28;20221;-72
2022/07/15 10:50:57;;;;;;;2.47;0.80;;;20.40;85.70;;;;;;4976032;28;20231;-72
2022/07/15 10:53:29;;;;;;;1.40;0.90;;;20.60;85.30;;;;;;5019595;28;20210;-73
2022/07/15 10:56:28;;;;;;;2.13;1.20;;;20.70;85.00;;;;;;5035632;28;20201;-72
2022/07/15 10:59:13;;;;;;;4.72;0.90;;;20.70;84.60;;;;;;5031910;28;20726;-71
2022/07/15 11:01:42;;;;;;;0.95;0.85;;;20.70;83.40;;;;;;5033620;28;20217;-72
2022/07/15 11:04:17;;;;;;;3.47;0.95;;;20.60;83.30;;;;;;5034056;28;20213;-72
2022/07/15 11:07:21;;;;;;;1.15;0.80;;;20.70;83.60;;;;;;5032231;28;20255;-72
2022/07/15 11:09:50;;;;;;;3.05;1.45;;;20.70;83.70;;;;;;5032432;28;20883;-72
2022/07/15 11:12:20;;;;;;;2.88;1.13;;;20.90;82.70;;;;;;5035192;28;20210;-72
2022/07/15 11:14:50;;;;;;;2.28;1.00;;;20.90;82.40;;;;;;5032642;28;20197;-72
2022/07/15 11:17:24;;;;;;;2.00;1.23;;;21.00;82.60;;;;;;5034062;28;20644;-71
2022/07/15 11:19:54;;;;;;;4.00;1.25;;;21.00;82.40;;;;;;5034365;28;20203;-71
2022/07/15 11:22:23;;;;;;;2.25;1.20;;;20.90;81.80;;;;;;5034107;28;20186;-72
2022/07/15 11:24:52;;;;;;;1.50;1.00;;;20.90;82.00;;;;;;5040711;28;20290;-71
2022/07/15 11:27:21;;;;;;;1.27;0.80;;;21.00;82.40;;;;;;5033390;28;20542;-72
2022/07/15 11:29:51;;;;;;;1.67;0.90;;;21.00;82.60;;;;;;5033376;28;20226;-71
2022/07/15 11:32:20;;;;;;;3.15;1.15;;;21.00;82.70;;;;;;5048942;28;20336;-72
2022/07/15 11:34:50;;;;;;;3.60;1.10;;;21.00;83.00;;;;;;5033913;28;20194;-72
2022/07/15 11:37:19;;;;;;;3.42;1.50;;;21.00;83.40;;;;;;5042637;28;20202;-71
2022/07/15 11:39:48;;;;;;;1.58;1.10;;;21.00;83.70;;;;;;5043164;28;20676;-71
2022/07/15 11:45:08;;;;;;;1.70;0.95;;;21.10;83.70;;;;;;5037302;28;20198;-71
2022/07/15 11:47:36;;;;;;;4.80;1.45;;;21.20;84.00;;;;;;5037789;28;20549;-72
2022/07/15 11:50:06;;;;;;;1.95;1.27;;;21.20;84.00;;;;;;5038776;28;20198;-71
2022/07/15 11:52:33;;;;;;;1.27;1.17;;;21.20;84.00;;;;;;5036767;28;20759;-71
2022/07/15 11:55:00;;;;;;;2.47;1.00;;;21.30;84.10;;;;;;5037585;28;20282;-71
2022/07/15 11:57:34;;;;;;;2.10;1.00;;;21.30;84.10;;;;;;5030956;28;20259;-71
2022/07/15 12:00:02;;;;;;;3.60;0.90;;;21.40;83.80;;;;;;5032143;28;20625;-74
2022/07/15 12:02:39;;;;;;;2.33;1.30;;;21.40;83.20;;;;;;5036561;28;20192;-73
2022/07/15 12:05:08;;;;;;;2.35;1.02;;;21.50;81.50;;;;;;5036920;28;20296;-73
2022/07/15 12:07:44;;;;;;;2.20;1.10;;;21.50;80.00;;;;;;5050892;28;20239;-74
2022/07/15 12:10:12;;;;;;;1.77;1.10;;;21.50;80.10;;;;;;5035966;28;20300;-74
2022/07/15 12:12:54;;;;;;;3.85;1.50;;;21.50;80.30;;;;;;5033544;28;20221;-74
2022/07/15 12:15:22;;;;;;;2.83;1.33;;;21.50;80.30;;;;;;5036001;28;20205;-73
2022/07/15 12:17:50;;;;;;;1.73;1.10;;;21.50;80.70;;;;;;5034815;28;20207;-75
2022/07/15 12:20:17;;;;;;;2.92;1.17;;;21.50;80.80;;;;;;5035202;28;20235;-74
2022/07/15 12:23:03;;;;;;;2.92;1.40;;;21.50;81.00;;;;;;5035749;28;20221;-74
2022/07/15 12:25:30;;;;;;;1.08;0.95;;;21.50;81.20;;;;;;5036724;28;20667;-74
2022/07/15 12:27:59;;;;;;;1.60;1.08;;;21.50;81.50;;;;;;5035660;28;20201;-73
2022/07/15 12:30:33;;;;;;;3.47;1.27;;;21.60;81.70;;;;;;5034944;28;20289;-74
2022/07/15 12:33:15;;;;;;;4.68;1.17;;;21.60;81.50;;;;;;5035497;28;20206;-74
2022/07/15 12:35:43;;;;;;;1.30;1.10;;;21.70;81.20;;;;;;5034818;28;20206;-73
2022/07/15 12:38:10;;;;;;;2.13;1.10;;;21.80;80.90;;;;;;5036186;28;20278;-73
2022/07/15 12:40:37;;;;;;;3.88;1.00;;;21.90;80.00;;;;;;5051331;28;20232;-74
2022/07/15 12:43:05;;;;;;;3.60;1.30;;;21.90;79.50;;;;;;5035003;28;20244;-74
2022/07/15 12:45:37;;;;;;;3.10;1.10;;;21.90;79.30;;;;;;5036405;28;20606;-74
2022/07/15 12:48:06;;;;;;;2.50;1.20;;;21.90;79.40;;;;;;5050110;28;20209;-73
2022/07/15 12:50:36;;;;;;;1.38;1.10;;;21.90;79.70;;;;;;5035973;28;21418;-73
2022/07/15 12:53:05;;;;;;;2.58;1.30;;;21.90;79.70;;;;;;5034589;28;20221;-74
2022/07/15 12:55:41;;;;;;;1.08;1.00;;;22.00;78.80;;;;;;5035123;28;20198;-71
2022/07/15 12:58:11;;;;;;;2.40;1.30;;;22.10;77.80;;;;;;5034779;28;20197;-69
2022/07/15 13:00:40;;;;;;;3.83;0.90;;;22.10;76.80;;;;;;5034210;28;20205;-68
2022/07/15 13:03:10;;;;;;;2.28;1.15;;;22.00;75.80;;;;;;5043125;28;20732;-68
2022/07/15 13:05:38;;;;;;;4.40;1.30;;;22.00;76.00;;;;;;5036259;28;20214;-68
2022/07/15 13:08:06;;;;;;;1.42;1.27;;;22.00;75.90;;;;;;5030926;28;20756;-68
2022/07/15 13:10:33;;;;;;;1.02;1.02;;;22.00;76.20;;;;;;5048950;28;20363;-68
2022/07/15 13:13:01;;;;;;;3.15;1.10;;;22.00;76.20;;;;;;5034429;28;20676;-68